Texhoma, Oklahoma
Current Conditions -  °F | °C
As of 7:53 AM on Thursday 30 Oct 2014 (Local Time) from KGUY Reporting Station
Clear Clear  
Wind Chill: 40°   Ceiling: Unl
Heat Index: 45°   Visibility: 10mi
Dew Point: 31°   Wind: 10mph
Humidity: 58%   Direction: 350°N
Pressure: 30.2"   Gusts: NA
Location:  36.51°N, 101.78°W
Report Text: KGUY 301253Z AUTO 35009KT 10SM CLR 07/M01 A3020 RMK AO2 SLP212 T00721006
Loading
Personal Weather Stations






























Interactive Weather Map
Tropical Storm Tracking
New forecast layout! Learn more

10-Day Weather Forecast

Advertisements
Track Severe Weather on mobile